Time;durP1;ratioP1;P1;durP2;ratioP2;P2;SDS_P1;SDS_P2;PMS_P1;PMS_P2;Temp;Humidity;BMP_temperature;BMP_pressure;BME280_temperature;BME280_humidity;BME280_pressure;Samples;Min_cycle;Max_cycle;Signal;HPM_P1;HPM_P2
2021/12/15 00:02:02;;;;;;;31.33;14.35;;;11.70;99.90;;;;;;5066700;28;20370;-83
2021/12/15 00:04:29;;;;;;;37.55;15.27;;;10.00;99.90;;;;;;5065014;28;20045;-83
2021/12/15 00:06:54;;;;;;;31.77;14.10;;;10.00;99.90;;;;;;5067020;28;20044;-82
2021/12/15 00:09:20;;;;;;;44.05;14.88;;;10.10;99.90;;;;;;5065625;28;20059;-82
2021/12/15 00:11:46;;;;;;;34.78;14.70;;;10.00;99.90;;;;;;5066419;28;20484;-83
2021/12/15 00:14:18;;;;;;;39.40;16.92;;;10.00;99.90;;;;;;5065641;28;20110;-82
2021/12/15 00:16:45;;;;;;;34.03;14.70;;;11.00;99.90;;;;;;5064944;28;20044;-83
2021/12/15 00:19:12;;;;;;;39.97;14.50;;;10.00;99.90;;;;;;5065127;28;20174;-82
2021/12/15 00:21:37;;;;;;;31.17;13.60;;;10.00;99.90;;;;;;5063316;28;20119;-83
2021/12/15 00:24:05;;;;;;;37.33;14.65;;;10.00;99.90;;;;;;5065082;28;20124;-82
2021/12/15 00:26:31;;;;;;;38.47;16.65;;;10.00;99.90;;;;;;5063842;28;20045;-83
2021/12/15 00:28:57;;;;;;;33.65;14.40;;;10.00;99.90;;;;;;5066275;28;20546;-82
2021/12/15 00:31:23;;;;;;;36.75;14.50;;;10.00;99.90;;;;;;5063955;28;20045;-83
2021/12/15 00:33:49;;;;;;;30.58;14.85;;;11.60;99.90;;;;;;5064803;28;20128;-83
2021/12/15 00:36:15;;;;;;;29.45;15.45;;;10.00;99.90;;;;;;5066393;28;20495;-83
2021/12/15 00:38:41;;;;;;;34.28;14.35;;;10.10;99.90;;;;;;5064519;28;20341;-83
2021/12/15 00:41:08;;;;;;;28.40;13.05;;;10.20;99.90;;;;;;5066378;28;20439;-82
2021/12/15 00:43:34;;;;;;;31.67;14.90;;;10.10;99.90;;;;;;5063552;28;20123;-83
2021/12/15 00:46:00;;;;;;;44.88;13.88;;;10.10;99.90;;;;;;5064643;28;20059;-83
2021/12/15 00:48:27;;;;;;;30.02;13.82;;;10.10;99.90;;;;;;5065125;28;20044;-83
2021/12/15 00:50:53;;;;;;;33.97;13.60;;;10.10;99.90;;;;;;5046825;28;20135;-82
2021/12/15 00:53:19;;;;;;;38.85;14.75;;;10.10;99.90;;;;;;5065660;28;20052;-82
2021/12/15 00:55:45;;;;;;;33.55;14.95;;;10.40;99.90;;;;;;5046334;28;20044;-83
2021/12/15 00:58:12;;;;;;;35.22;13.63;;;10.30;99.90;;;;;;5064544;28;20121;-82
2021/12/15 01:00:45;;;;;;;27.00;13.80;;;10.10;99.90;;;;;;5064201;28;20381;-83
2021/12/15 01:03:13;;;;;;;29.48;14.02;;;10.30;99.90;;;;;;5065573;28;20098;-83
2021/12/15 01:05:46;;;;;;;32.78;14.68;;;10.90;99.90;;;;;;5064740;28;20052;-83
2021/12/15 01:08:23;;;;;;;30.52;14.50;;;10.90;99.90;;;;;;5064398;28;20123;-83
2021/12/15 01:21:52;;;;;;;29.85;13.23;;;10.00;99.90;;;;;;5063930;28;20466;-82
2021/12/15 01:24:18;;;;;;;33.15;14.05;;;10.20;99.90;;;;;;5063746;28;20116;-82
2021/12/15 01:26:44;;;;;;;26.65;12.40;;;10.10;99.90;;;;;;5064214;28;20095;-82
2021/12/15 01:29:10;;;;;;;41.83;13.27;;;11.00;99.90;;;;;;5063892;28;20080;-82
2021/12/15 01:31:36;;;;;;;28.92;13.18;;;10.10;99.90;;;;;;5046144;28;20052;-81
2021/12/15 01:34:02;;;;;;;32.30;13.68;;;10.10;99.90;;;;;;5063118;28;20101;-82
2021/12/15 01:36:28;;;;;;;26.48;12.98;;;10.40;99.90;;;;;;5064968;28;20059;-82
2021/12/15 01:38:54;;;;;;;30.63;13.93;;;10.10;99.90;;;;;;5061820;28;20044;-82
2021/12/15 01:41:23;;;;;;;26.65;13.77;;;11.20;99.90;;;;;;5063649;28;20090;-82
2021/12/15 01:49:21;;;;;;;29.02;14.95;;;10.10;99.90;;;;;;5063247;28;20048;-82
2021/12/15 01:51:47;;;;;;;35.22;14.93;;;10.50;99.90;;;;;;5062063;28;20048;-82
2021/12/15 01:54:14;;;;;;;35.75;15.10;;;10.20;99.90;;;;;;5064543;28;20559;-82
2021/12/15 01:56:40;;;;;;;28.40;14.43;;;10.20;99.90;;;;;;5063796;28;20055;-82
2021/12/15 01:59:07;;;;;;;35.30;15.38;;;11.60;99.90;;;;;;5063930;28;20036;-82
2021/12/15 02:01:33;;;;;;;35.35;15.93;;;10.20;99.90;;;;;;5062778;28;20052;-82
2021/12/15 02:03:59;;;;;;;33.10;14.73;;;11.30;99.90;;;;;;5062847;28;20033;-82
2021/12/15 02:06:26;;;;;;;25.63;14.00;;;10.20;99.90;;;;;;5064782;28;20036;-82
2021/12/15 02:08:52;;;;;;;37.63;16.50;;;10.60;99.90;;;;;;5061325;28;20072;-82
2021/12/15 02:11:19;;;;;;;33.20;15.65;;;10.10;99.90;;;;;;5064812;28;20040;-82
2021/12/15 02:13:45;;;;;;;35.75;15.48;;;10.20;99.90;;;;;;5063423;28;20047;-82
2021/12/15 02:16:11;;;;;;;37.10;15.80;;;10.10;99.90;;;;;;5064052;28;20092;-82
2021/12/15 02:18:41;;;;;;;35.25;14.85;;;10.20;99.90;;;;;;5062258;28;20041;-82
2021/12/15 02:21:14;;;;;;;34.58;16.42;;;10.80;99.90;;;;;;5061786;28;20055;-82
2021/12/15 02:23:47;;;;;;;30.25;16.25;;;10.20;99.90;;;;;;5064689;28;20523;-82
2021/12/15 02:26:17;;;;;;;33.60;14.70;;;10.40;99.90;;;;;;5063400;28;20041;-82
2021/12/15 02:28:46;;;;;;;32.17;15.80;;;10.20;99.90;;;;;;5064462;28;20071;-82
2021/12/15 02:31:34;;;;;;;34.55;15.32;;;10.20;99.90;;;;;;5062063;28;20113;-82
2021/12/15 02:39:16;;;;;;;35.72;15.77;;;10.60;99.90;;;;;;5062313;28;20044;-82
2021/12/15 02:41:44;;;;;;;30.35;16.77;;;10.20;99.90;;;;;;5064781;28;20588;-83
2021/12/15 02:44:14;;;;;;;31.58;14.73;;;11.80;99.90;;;;;;5067584;28;20496;-82
2021/12/15 02:46:41;;;;;;;37.25;16.30;;;10.20;99.90;;;;;;5065718;28;20131;-83
2021/12/15 02:49:09;;;;;;;38.88;16.33;;;11.30;99.90;;;;;;5067826;28;20119;-83
2021/12/15 02:51:36;;;;;;;34.00;16.75;;;10.20;99.90;;;;;;5066799;28;20524;-82
2021/12/15 02:54:04;;;;;;;35.67;17.63;;;11.30;99.90;;;;;;5068785;28;20360;-82
2021/12/15 02:56:30;;;;;;;31.02;15.13;;;10.20;99.90;;;;;;5065355;28;20085;-83
2021/12/15 02:59:03;;;;;;;33.15;15.70;;;10.20;99.90;;;;;;5067563;28;20123;-82
2021/12/15 03:01:54;;;;;;;33.40;17.27;;;9.60;99.90;;;;;;5066232;28;20105;-83
2021/12/15 03:07:17;;;;;;;35.63;16.13;;;10.20;99.90;;;;;;5066547;28;20113;-82
2021/12/15 03:18:03;;;;;;;32.78;16.23;;;10.20;99.90;;;;;;5065563;28;20407;-83
2021/12/15 03:20:33;;;;;;;37.20;17.67;;;10.20;99.90;;;;;;5065104;28;20049;-82
2021/12/15 03:23:00;;;;;;;33.53;15.65;;;10.20;99.90;;;;;;5065755;28;20076;-82
2021/12/15 03:25:29;;;;;;;30.92;16.33;;;10.20;99.90;;;;;;5064176;28;20094;-83
2021/12/15 03:33:35;;;;;;;34.95;16.10;;;10.50;99.90;;;;;;5066065;28;20059;-83
2021/12/15 03:36:10;;;;;;;33.33;15.82;;;11.70;99.90;;;;;;5050159;28;20060;-83
2021/12/15 03:38:36;;;;;;;34.72;16.42;;;10.00;99.90;;;;;;5065513;28;20037;-82
2021/12/15 03:41:05;;;;;;;34.65;16.13;;;10.30;99.90;;;;;;5066398;28;20059;-82
2021/12/15 03:43:33;;;;;;;36.55;17.08;;;10.20;99.90;;;;;;5066006;28;20036;-83
2021/12/15 03:46:10;;;;;;;37.38;16.95;;;10.50;99.90;;;;;;5066382;28;20040;-83
2021/12/15 03:48:42;;;;;;;36.88;17.13;;;10.20;99.90;;;;;;5065201;28;20079;-83
2021/12/15 03:51:08;;;;;;;33.67;16.48;;;10.20;99.90;;;;;;5065045;28;20044;-83
2021/12/15 03:53:34;;;;;;;34.10;17.67;;;10.80;99.90;;;;;;5067051;28;20477;-82
2021/12/15 03:56:01;;;;;;;40.97;17.83;;;10.20;99.90;;;;;;5064474;28;20052;-82
2021/12/15 03:58:27;;;;;;;43.38;18.67;;;10.20;99.90;;;;;;5065447;28;20508;-83
2021/12/15 04:01:04;;;;;;;33.17;16.90;;;10.40;99.90;;;;;;5066031;28;20446;-83
2021/12/15 04:03:39;;;;;;;38.10;17.55;;;10.20;99.90;;;;;;5065397;28;20524;-83
2021/12/15 04:06:09;;;;;;;35.25;17.70;;;10.20;99.90;;;;;;5066513;28;20566;-83
2021/12/15 04:08:36;;;;;;;42.75;19.13;;;10.20;99.90;;;;;;5065279;28;20060;-84
2021/12/15 04:11:06;;;;;;;38.00;16.60;;;10.20;99.90;;;;;;5048557;28;20503;-83
2021/12/15 04:13:32;;;;;;;36.10;17.05;;;10.20;99.90;;;;;;5064070;28;20484;-83
2021/12/15 04:16:05;;;;;;;32.25;15.52;;;10.20;99.90;;;;;;5066209;28;20445;-83
2021/12/15 04:18:32;;;;;;;33.88;17.60;;;10.90;99.90;;;;;;5066367;28;20056;-83
2021/12/15 04:20:57;;;;;;;37.28;18.10;;;10.20;99.90;;;;;;5063452;28;20434;-83
2021/12/15 04:23:23;;;;;;;34.30;17.90;;;10.20;99.90;;;;;;5065533;28;20131;-83
2021/12/15 04:25:54;;;;;;;30.83;16.52;;;12.00;99.90;;;;;;5064516;28;20566;-83
2021/12/15 04:28:24;;;;;;;35.33;17.25;;;10.20;99.90;;;;;;5066383;28;20056;-83
2021/12/15 04:30:54;;;;;;;39.20;16.67;;;11.90;99.90;;;;;;5065268;28;20104;-83
2021/12/15 04:33:29;;;;;;;38.95;16.05;;;10.20;99.90;;;;;;5064975;28;20044;-83
2021/12/15 04:35:55;;;;;;;38.15;16.83;;;10.20;99.90;;;;;;5064683;28;20079;-83
2021/12/15 04:38:24;;;;;;;34.20;16.52;;;10.50;99.90;;;;;;5064480;28;20373;-83
2021/12/15 04:40:50;;;;;;;25.70;14.55;;;10.70;99.90;;;;;;5066780;28;20051;-83
2021/12/15 04:43:17;;;;;;;31.00;15.63;;;10.20;99.90;;;;;;5065167;28;20044;-83
2021/12/15 04:45:43;;;;;;;32.70;16.58;;;10.20;99.90;;;;;;5065811;28;20094;-83
2021/12/15 04:48:10;;;;;;;30.70;14.13;;;10.20;99.90;;;;;;5065083;28;20120;-83
2021/12/15 04:50:37;;;;;;;35.58;15.27;;;10.20;99.90;;;;;;5064333;28;20048;-83
2021/12/15 04:53:05;;;;;;;32.03;15.70;;;11.90;99.90;;;;;;5065510;28;20123;-83
2021/12/15 04:55:33;;;;;;;30.60;15.38;;;11.10;99.90;;;;;;5062912;28;20052;-83
2021/12/15 04:58:00;;;;;;;33.88;16.45;;;10.90;99.90;;;;;;5065791;28;20102;-83
2021/12/15 05:00:30;;;;;;;29.33;14.50;;;12.10;99.90;;;;;;5064268;28;20037;-83
2021/12/15 05:02:57;;;;;;;30.38;16.23;;;10.20;99.90;;;;;;5047454;28;20052;-83
2021/12/15 05:05:24;;;;;;;47.05;16.48;;;10.20;99.90;;;;;;5046053;28;20391;-83
2021/12/15 05:07:51;;;;;;;37.72;16.10;;;10.60;99.90;;;;;;5062570;28;20139;-83
2021/12/15 05:10:18;;;;;;;31.10;15.13;;;11.90;99.90;;;;;;5063663;28;20044;-83
2021/12/15 05:12:44;;;;;;;31.27;16.05;;;10.20;99.90;;;;;;5062257;28;20123;-83
2021/12/15 05:15:11;;;;;;;33.67;15.48;;;10.20;99.90;;;;;;5047452;28;20040;-83
2021/12/15 05:17:37;;;;;;;34.58;14.73;;;10.20;99.90;;;;;;5064042;28;20044;-84
2021/12/15 05:20:06;;;;;;;34.25;16.35;;;10.20;99.90;;;;;;5065156;28;20081;-83
2021/12/15 05:22:32;;;;;;;39.42;15.20;;;9.00;99.90;;;;;;5046788;28;20048;-83
2021/12/15 05:24:58;;;;;;;34.90;15.40;;;10.60;99.90;;;;;;5063630;28;20047;-83
2021/12/15 05:27:24;;;;;;;32.30;16.23;;;10.20;99.90;;;;;;5065283;28;20044;-84
2021/12/15 05:29:50;;;;;;;33.83;15.48;;;10.20;99.90;;;;;;5063083;28;20052;-84
2021/12/15 05:32:18;;;;;;;29.17;15.48;;;10.20;99.90;;;;;;5047594;28;20037;-84
2021/12/15 05:34:46;;;;;;;35.80;16.70;;;10.10;99.90;;;;;;5063290;28;20056;-84
2021/12/15 05:37:13;;;;;;;38.20;16.17;;;10.10;99.90;;;;;;5064343;28;20045;-84
2021/12/15 05:39:40;;;;;;;34.03;16.77;;;10.20;99.90;;;;;;5064642;28;20403;-83
2021/12/15 05:42:07;;;;;;;37.35;16.33;;;10.20;99.90;;;;;;5063858;28;20399;-84
2021/12/15 05:44:33;;;;;;;36.95;16.58;;;11.60;99.90;;;;;;5065051;28;20546;-83
2021/12/15 05:47:03;;;;;;;33.97;16.38;;;12.00;99.90;;;;;;5063118;28;20052;-84
2021/12/15 05:49:29;;;;;;;36.10;16.15;;;10.20;99.90;;;;;;5064042;28;20478;-82
2021/12/15 05:51:55;;;;;;;36.75;16.35;;;10.10;99.90;;;;;;5063418;28;20127;-85
2021/12/15 05:54:21;;;;;;;30.00;14.75;;;10.50;99.90;;;;;;5062705;28;20041;-85
2021/12/15 05:56:47;;;;;;;36.85;16.63;;;11.20;99.90;;;;;;5062714;28;20094;-85
2021/12/15 05:59:12;;;;;;;40.38;17.83;;;11.10;99.90;;;;;;5063415;28;20090;-86
2021/12/15 06:01:38;;;;;;;34.40;16.73;;;10.10;99.90;;;;;;5062817;28;20491;-86
2021/12/15 06:04:06;;;;;;;29.63;15.57;;;10.20;99.90;;;;;;5044915;28;20086;-87
2021/12/15 06:06:32;;;;;;;29.13;15.45;;;12.10;99.90;;;;;;5062265;28;20109;-86
2021/12/15 06:08:59;;;;;;;31.05;15.95;;;10.10;99.90;;;;;;5061226;28;20046;-86
2021/12/15 06:11:25;;;;;;;35.20;15.38;;;10.10;99.90;;;;;;5062221;28;20290;-86
2021/12/15 06:13:53;;;;;;;38.78;16.20;;;10.40;99.90;;;;;;5062357;28;20045;-86
2021/12/15 06:16:19;;;;;;;38.50;16.42;;;10.20;99.90;;;;;;5062346;28;20455;-86
2021/12/15 06:18:48;;;;;;;37.20;16.83;;;10.10;99.90;;;;;;5065418;28;20049;-86
2021/12/15 06:21:15;;;;;;;35.05;15.93;;;9.90;99.90;;;;;;5045844;28;20114;-89
2021/12/15 06:23:41;;;;;;;37.58;16.42;;;10.90;99.90;;;;;;5063636;28;20040;-86
2021/12/15 06:26:08;;;;;;;34.78;16.73;;;10.50;99.90;;;;;;5061600;28;20044;-86
2021/12/15 06:28:35;;;;;;;37.92;16.08;;;10.20;99.90;;;;;;5045603;28;20032;-86
2021/12/15 06:31:03;;;;;;;32.60;16.60;;;10.10;99.90;;;;;;5062160;28;20139;-87
2021/12/15 06:33:29;;;;;;;39.95;16.98;;;10.20;99.90;;;;;;5044572;28;20484;-86
2021/12/15 06:35:59;;;;;;;36.33;16.80;;;11.10;99.90;;;;;;5046711;28;20470;-86
2021/12/15 06:38:32;;;;;;;39.10;16.58;;;11.80;99.90;;;;;;5060998;28;20124;-87
2021/12/15 06:40:58;;;;;;;;;;;10.20;99.90;;;;;;5062785;28;20041;-86
2021/12/15 06:43:24;;;;;;;32.80;15.48;;;11.50;99.90;;;;;;5044886;28;19928;-87
2021/12/15 06:59:23;;;;;;;28.75;15.43;;;10.20;99.90;;;;;;5063040;28;20506;-96
2021/12/15 07:01:52;;;;;;;29.10;14.63;;;10.20;99.90;;;;;;5031139;28;20139;-93
2021/12/15 07:04:20;;;;;;;32.95;15.20;;;11.00;99.90;;;;;;5044852;28;20045;-87
2021/12/15 07:06:46;;;;;;;33.33;14.88;;;10.20;99.90;;;;;;5062576;28;20099;-89
2021/12/15 07:09:12;;;;;;;31.48;14.75;;;10.30;99.90;;;;;;5043800;28;20135;-95
2021/12/15 07:11:38;;;;;;;28.48;14.05;;;11.20;99.90;;;;;;5014171;28;20079;-96
2021/12/15 07:14:04;;;;;;;33.88;14.77;;;10.20;99.90;;;;;;5031470;28;20079;-89
2021/12/15 07:16:32;;;;;;;36.58;14.95;;;10.30;99.90;;;;;;5063129;28;20571;-90
2021/12/15 07:19:15;;;;;;;36.28;14.40;;;10.30;99.90;;;;;;5046085;28;20086;-91
2021/12/15 07:21:51;;;;;;;29.40;14.63;;;11.30;99.90;;;;;;5019207;28;20044;-91
2021/12/15 07:24:17;;;;;;;31.95;13.02;;;11.00;99.90;;;;;;5030823;28;20076;-89
2021/12/15 07:26:42;;;;;;;30.98;13.80;;;10.30;99.90;;;;;;5045491;28;20086;-85
2021/12/15 07:29:08;;;;;;;39.15;15.10;;;10.30;99.90;;;;;;5062626;28;20094;-94
2021/12/15 07:31:34;;;;;;;31.85;14.95;;;10.30;99.90;;;;;;5067588;28;20040;-87
2021/12/15 07:34:00;;;;;;;31.88;14.00;;;10.30;99.90;;;;;;5066164;28;20056;-89
2021/12/15 07:36:26;;;;;;;30.67;13.73;;;10.30;99.90;;;;;;5049678;28;20139;-91
2021/12/15 07:38:54;;;;;;;26.45;12.20;;;12.20;99.90;;;;;;5065157;28;20072;-94
2021/12/15 07:41:36;;;;;;;27.83;13.23;;;11.90;99.90;;;;;;5049880;28;20067;-88
2021/12/15 07:44:03;;;;;;;33.20;13.80;;;11.00;99.90;;;;;;5047926;28;20052;-88
2021/12/15 07:46:30;;;;;;;23.08;12.70;;;10.30;99.90;;;;;;5064349;28;20045;-94
2021/12/15 07:48:56;;;;;;;26.42;12.57;;;10.30;99.90;;;;;;5051216;28;20044;-93
2021/12/15 07:51:22;;;;;;;23.05;12.20;;;10.30;99.90;;;;;;5065758;28;20039;-93
2021/12/15 07:53:48;;;;;;;29.90;13.10;;;10.30;99.90;;;;;;5052574;28;20130;-95
2021/12/15 07:56:15;;;;;;;29.77;12.70;;;10.30;99.90;;;;;;5032464;28;20052;-88
2021/12/15 07:58:41;;;;;;;28.08;13.50;;;10.30;99.90;;;;;;5064327;28;20073;-86
2021/12/15 08:01:12;;;;;;;24.17;11.70;;;10.30;99.90;;;;;;5063548;28;20044;-88
2021/12/15 08:04:52;;;;;;;;;;;;;;;;;;;;;
2021/12/15 08:06:48;;;;;;;25.02;12.05;;;10.30;99.90;;;;;;5056455;28;20044;-86
2021/12/15 08:09:14;;;;;;;28.60;12.13;;;11.30;99.90;;;;;;5063981;28;20051;-86
2021/12/15 08:11:40;;;;;;;21.38;11.63;;;9.10;99.90;;;;;;5048438;28;20459;-86
2021/12/15 08:14:07;;;;;;;26.27;10.55;;;11.90;99.90;;;;;;5047499;28;20040;-88
2021/12/15 08:16:33;;;;;;;23.48;11.30;;;10.30;99.90;;;;;;5030707;28;20475;-86
2021/12/15 08:19:00;;;;;;;20.45;10.38;;;11.20;99.90;;;;;;5065134;28;20041;-86
2021/12/15 08:21:27;;;;;;;21.20;9.40;;;10.30;99.90;;;;;;5063204;28;20055;-86
2021/12/15 08:23:54;;;;;;;25.58;11.05;;;10.60;99.90;;;;;;5048480;28;20107;-86
2021/12/15 08:26:33;;;;;;;;;;;;;;;;;;;;;
2021/12/15 08:29:03;;;;;;;27.75;10.63;;;12.00;99.90;;;;;;5033125;28;20051;-86
2021/12/15 08:31:29;;;;;;;25.60;9.52;;;11.50;99.90;;;;;;5046772;28;20056;-87
2021/12/15 08:33:54;;;;;;;19.05;9.32;;;10.30;99.90;;;;;;5012418;28;20056;-86
2021/12/15 08:36:21;;;;;;;22.65;9.23;;;10.30;99.90;;;;;;5045204;28;20049;-86
2021/12/15 08:39:37;;;;;;;17.80;7.97;;;12.10;99.90;;;;;;5045378;28;20041;-87
2021/12/15 08:42:24;;;;;;;;;;;;;;;;;;;;;
2021/12/15 08:44:50;;;;;;;17.92;8.50;;;9.90;99.90;;;;;;5047757;28;20075;-86
2021/12/15 08:47:22;;;;;;;22.88;8.38;;;10.50;99.90;;;;;;5046157;28;20049;-87
2021/12/15 08:50:18;;;;;;;20.35;8.32;;;10.20;99.90;;;;;;5053342;28;20044;-87
2021/12/15 08:53:24;;;;;;;15.93;8.52;;;10.10;99.90;;;;;;5063056;28;20052;-87
2021/12/15 08:56:34;;;;;;;20.00;8.60;;;9.10;99.90;;;;;;5065029;28;20101;-87
2021/12/15 08:59:00;;;;;;;22.00;9.23;;;10.10;99.90;;;;;;5063463;28;20161;-86
2021/12/15 09:01:43;;;;;;;16.05;8.63;;;10.20;99.90;;;;;;5062045;28;20292;-85
2021/12/15 09:04:53;;;;;;;21.95;9.35;;;10.20;99.90;;;;;;5012824;28;20044;-87
2021/12/15 09:11:15;;;;;;;22.45;8.73;;;10.40;99.90;;;;;;5025863;28;20068;-87
2021/12/15 09:14:10;;;;;;;21.98;9.55;;;10.40;99.90;;;;;;5045902;28;20049;-88
2021/12/15 09:16:48;;;;;;;21.48;9.63;;;10.40;99.90;;;;;;5041868;28;20041;-86
2021/12/15 09:20:07;;;;;;;;;;;;;;;;;;;;;
2021/12/15 09:23:35;;;;;;;;;;;;;;;;;;;;;
2021/12/15 09:26:11;;;;;;;18.77;7.70;;;10.50;99.90;;;;;;5036216;28;20560;-87
2021/12/15 09:28:37;;;;;;;22.00;8.68;;;10.40;99.90;;;;;;5044505;28;20045;-88
2021/12/15 09:31:05;;;;;;;17.48;7.93;;;12.60;99.90;;;;;;5025658;28;20040;-87
2021/12/15 09:34:22;;;;;;;19.58;8.25;;;11.90;99.90;;;;;;5041994;28;20415;-87
2021/12/15 09:37:02;;;;;;;;;;;;;;;;;;;;;
2021/12/15 09:39:38;;;;;;;14.20;8.13;;;10.60;99.90;;;;;;5037535;28;20377;-87
2021/12/15 09:42:52;;;;;;;19.33;7.90;;;10.80;99.90;;;;;;5026070;28;20590;-88
2021/12/15 09:45:21;;;;;;;14.38;7.75;;;10.60;99.90;;;;;;5038984;28;20074;-86
2021/12/15 10:18:54;;;;;;;13.23;5.50;;;10.70;99.90;;;;;;5041111;28;20488;-86
2021/12/15 10:36:22;;;;;;;15.57;5.60;;;10.70;99.90;;;;;;5032732;28;20103;-86
2021/12/15 10:38:52;;;;;;;14.98;5.85;;;9.20;99.90;;;;;;5025842;28;20052;-86
2021/12/15 10:41:28;;;;;;;15.10;6.28;;;11.00;99.90;;;;;;5041872;28;20099;-86
2021/12/15 10:43:58;;;;;;;15.23;5.97;;;10.80;99.90;;;;;;5025892;28;20049;-86
2021/12/15 10:46:31;;;;;;;11.40;5.80;;;11.80;99.90;;;;;;5041655;28;20041;-86
2021/12/15 10:49:07;;;;;;;13.23;5.35;;;12.60;99.90;;;;;;5025440;28;20059;-86
2021/12/15 10:51:36;;;;;;;13.30;6.07;;;10.70;99.90;;;;;;5041410;28;20292;-86
2021/12/15 10:54:23;;;;;;;11.85;4.95;;;10.80;99.90;;;;;;5024126;28;20098;-86
2021/12/15 10:57:03;;;;;;;18.27;6.78;;;10.80;99.90;;;;;;5041681;28;20095;-88
2021/12/15 10:59:44;;;;;;;12.65;5.57;;;10.80;99.90;;;;;;5024729;28;20131;-87
2021/12/15 11:02:13;;;;;;;19.63;5.95;;;10.80;99.90;;;;;;5041687;28;20076;-87
2021/12/15 11:05:01;;;;;;;13.55;5.18;;;10.80;99.90;;;;;;5029678;28;20048;-85
2021/12/15 11:07:33;;;;;;;14.75;5.53;;;10.80;99.90;;;;;;5045550;28;20041;-86
2021/12/15 11:10:10;;;;;;;13.82;5.78;;;10.90;99.90;;;;;;5047214;28;20399;-87
2021/12/15 11:12:40;;;;;;;12.10;5.47;;;10.90;99.90;;;;;;5029128;28;20132;-86
2021/12/15 11:15:11;;;;;;;12.35;6.78;;;11.80;99.90;;;;;;5046905;28;20432;-86
2021/12/15 11:17:46;;;;;;;16.10;6.20;;;11.00;99.90;;;;;;5045837;28;20431;-86
2021/12/15 11:20:24;;;;;;;14.93;5.53;;;11.50;99.90;;;;;;5046261;28;20044;-85
2021/12/15 11:22:53;;;;;;;16.83;4.88;;;11.70;99.90;;;;;;5029160;28;20051;-86
2021/12/15 11:25:19;;;;;;;13.07;6.03;;;12.10;99.90;;;;;;5045151;28;20043;-87
2021/12/15 11:27:56;;;;;;;10.35;4.97;;;11.00;99.90;;;;;;5028443;28;20475;-87
2021/12/15 11:30:34;;;;;;;17.63;5.88;;;11.00;99.90;;;;;;5028012;28;20048;-86
2021/12/15 11:33:14;;;;;;;14.57;6.43;;;11.10;99.90;;;;;;5025679;28;20485;-87
2021/12/15 11:35:57;;;;;;;12.60;5.20;;;13.20;99.90;;;;;;5028212;28;20049;-85
2021/12/15 11:38:27;;;;;;;16.80;5.22;;;11.00;99.90;;;;;;5047143;28;20447;-85
2021/12/15 11:40:56;;;;;;;14.65;5.32;;;11.10;99.90;;;;;;5046608;28;20084;-87
2021/12/15 11:43:42;;;;;;;12.90;5.32;;;11.10;99.90;;;;;;5045156;28;20045;-87
2021/12/15 11:46:29;;;;;;;11.50;5.22;;;13.00;99.90;;;;;;5028076;28;20047;-87
2021/12/15 11:49:10;;;;;;;14.80;5.07;;;11.10;99.90;;;;;;5028439;28;20082;-87
2021/12/15 11:51:48;;;;;;;10.00;5.15;;;11.10;99.90;;;;;;5044292;28;20045;-87
2021/12/15 11:54:41;;;;;;;10.95;4.63;;;11.00;99.90;;;;;;5042238;28;20053;-87
2021/12/15 11:57:22;;;;;;;11.13;3.63;;;11.10;99.90;;;;;;5028428;28;20397;-89
2021/12/15 11:59:59;;;;;;;7.25;3.13;;;11.10;99.90;;;;;;5045133;28;20052;-95
2021/12/15 12:02:32;;;;;;;8.85;3.42;;;11.10;99.90;;;;;;5044412;28;20131;-89
2021/12/15 12:05:02;;;;;;;7.75;3.05;;;12.30;99.90;;;;;;5045461;28;20040;-88
2021/12/15 12:07:46;;;;;;;6.45;2.50;;;12.20;99.90;;;;;;5043903;28;20074;-87
2021/12/15 12:10:30;;;;;;;;;;;;;;;;;;;;;
2021/12/15 12:14:01;;;;;;;4.80;1.67;;;11.20;99.90;;;;;;5039261;28;20132;-86
2021/12/15 12:16:26;;;;;;;7.82;2.40;;;11.10;99.90;;;;;;5036942;28;20056;-88
2021/12/15 12:18:53;;;;;;;5.78;2.25;;;11.10;99.90;;;;;;5028296;28;20037;-89
2021/12/15 12:21:20;;;;;;;9.82;2.85;;;11.90;99.90;;;;;;5027773;28;20515;-85
2021/12/15 12:23:49;;;;;;;7.80;2.20;;;11.00;99.90;;;;;;5045694;28;20040;-85
2021/12/15 12:26:16;;;;;;;7.90;2.05;;;11.00;99.90;;;;;;5027368;28;20480;-86
2021/12/15 12:28:45;;;;;;;5.75;2.17;;;11.60;99.90;;;;;;5027733;28;20033;-87
2021/12/15 12:31:15;;;;;;;5.25;2.25;;;12.40;99.90;;;;;;5028034;28;20045;-86
2021/12/15 12:33:41;;;;;;;6.75;2.28;;;10.90;99.90;;;;;;5028066;28;20120;-87
2021/12/15 12:36:11;;;;;;;10.15;2.05;;;11.00;99.90;;;;;;5044452;28;20139;-87
2021/12/15 12:38:41;;;;;;;7.25;2.47;;;11.00;99.90;;;;;;5044911;28;20180;-86
2021/12/15 12:41:16;;;;;;;8.80;2.05;;;12.60;99.90;;;;;;5046544;28;20052;-87
2021/12/15 12:43:46;;;;;;;5.43;1.73;;;10.10;99.90;;;;;;5045633;28;20497;-86
2021/12/15 12:46:40;;;;;;;5.82;2.13;;;11.00;99.90;;;;;;5026559;28;20146;-87
2021/12/15 13:00:35;;;;;;;3.95;1.15;;;10.90;99.90;;;;;;5043350;28;20048;-87
2021/12/15 13:03:11;;;;;;;4.72;0.65;;;11.30;99.90;;;;;;5042425;28;20630;-86
2021/12/15 13:05:48;;;;;;;9.57;1.33;;;10.70;99.90;;;;;;5026602;28;20056;-89
2021/12/15 13:08:36;;;;;;;7.82;0.90;;;10.60;99.90;;;;;;5042518;28;20045;-88
2021/12/15 13:11:25;;;;;;;5.63;0.80;;;10.50;99.90;;;;;;5026712;28;20076;-89
2021/12/15 13:14:15;;;;;;;2.35;1.08;;;10.40;99.90;;;;;;5026707;28;20041;-87
2021/12/15 13:16:54;;;;;;;5.55;0.80;;;10.40;99.90;;;;;;5043355;28;20045;-89
2021/12/15 13:19:39;;;;;;;2.92;1.45;;;10.30;99.90;;;;;;5026749;28;20045;-86
2021/12/15 13:31:03;;;;;;;8.90;1.20;;;10.20;99.90;;;;;;5044916;28;20055;-88
2021/12/15 13:33:34;;;;;;;4.25;0.90;;;10.20;99.90;;;;;;5044030;28;20041;-87
2021/12/15 13:36:10;;;;;;;2.95;0.80;;;10.20;99.90;;;;;;5029430;28;20483;-87
2021/12/15 13:38:48;;;;;;;3.03;1.00;;;10.20;99.90;;;;;;5027663;28;20048;-87
2021/12/15 13:41:38;;;;;;;5.47;0.80;;;10.30;99.90;;;;;;5043560;28;20099;-86
2021/12/15 13:44:35;;;;;;;3.40;0.90;;;10.30;99.90;;;;;;5027489;28;20060;-87
2021/12/15 13:47:24;;;;;;;6.78;0.90;;;10.70;99.90;;;;;;5025905;28;20053;-86
2021/12/15 13:49:59;;;;;;;7.03;1.05;;;10.30;99.90;;;;;;5042491;28;20052;-87
2021/12/15 13:52:34;;;;;;;4.07;0.88;;;8.60;99.90;;;;;;5043075;28;20206;-86
2021/12/15 13:55:03;;;;;;;7.88;0.95;;;11.50;99.90;;;;;;5025555;28;20477;-88
2021/12/15 13:57:30;;;;;;;2.50;0.77;;;10.20;99.90;;;;;;5025951;28;20045;-86
2021/12/15 14:00:01;;;;;;;1.08;0.50;;;10.30;99.90;;;;;;5043403;28;20094;-87
2021/12/15 14:02:31;;;;;;;7.30;0.98;;;11.10;99.90;;;;;;5026026;28;20037;-87
2021/12/15 14:04:59;;;;;;;1.75;0.45;;;10.20;99.90;;;;;;5027554;28;20041;-86
2021/12/15 14:07:28;;;;;;;2.35;0.63;;;10.20;99.90;;;;;;5044561;28;20068;-87
2021/12/15 14:10:14;;;;;;;7.45;1.00;;;10.50;99.90;;;;;;5026030;28;20045;-86
2021/12/15 14:12:46;;;;;;;1.30;0.50;;;10.90;99.90;;;;;;5025560;28;20563;-87
2021/12/15 14:15:26;;;;;;;2.92;0.80;;;10.10;99.90;;;;;;5042461;28;20120;-87
2021/12/15 14:18:02;;;;;;;4.20;0.77;;;10.10;99.90;;;;;;5042424;28;20045;-86
2021/12/15 14:20:30;;;;;;;4.90;1.63;;;10.00;99.90;;;;;;5041524;28;20136;-86
2021/12/15 14:23:02;;;;;;;4.28;0.80;;;10.40;99.90;;;;;;5026076;28;20132;-86
2021/12/15 14:25:28;;;;;;;2.63;0.68;;;9.90;99.90;;;;;;5042338;28;20029;-85
2021/12/15 14:27:58;;;;;;;2.88;0.90;;;9.80;99.90;;;;;;5039711;28;20030;-87
2021/12/15 14:30:27;;;;;;;2.17;0.50;;;9.70;99.90;;;;;;5023643;28;20067;-90
2021/12/15 14:32:52;;;;;;;3.22;0.90;;;9.60;99.90;;;;;;5024784;28;20288;-86
2021/12/15 14:35:23;;;;;;;5.68;0.80;;;11.40;99.90;;;;;;5059208;28;20055;-88
2021/12/15 14:37:49;;;;;;;3.85;0.90;;;9.50;99.90;;;;;;5039954;28;20101;-85
2021/12/15 14:40:15;;;;;;;4.10;1.15;;;10.10;99.90;;;;;;5045176;28;20292;-84
2021/12/15 14:42:47;;;;;;;3.53;0.80;;;9.50;99.90;;;;;;5045144;28;20258;-87
2021/12/15 14:45:14;;;;;;;2.20;0.80;;;11.00;99.90;;;;;;5062536;28;20041;-87
2021/12/15 14:47:43;;;;;;;3.55;0.80;;;9.70;99.90;;;;;;5045786;28;20041;-86
2021/12/15 14:50:13;;;;;;;4.78;1.02;;;9.50;99.90;;;;;;5045821;28;20080;-86
2021/12/15 14:52:50;;;;;;;3.38;0.88;;;9.50;99.90;;;;;;5030437;28;20134;-86
2021/12/15 14:55:27;;;;;;;6.13;0.85;;;8.60;99.90;;;;;;5027451;28;20405;-86
2021/12/15 14:57:53;;;;;;;1.38;0.85;;;9.50;99.90;;;;;;5046588;28;20044;-86
2021/12/15 15:00:28;;;;;;;3.50;0.90;;;10.60;99.90;;;;;;5045922;28;20167;-86
2021/12/15 15:02:59;;;;;;;1.60;0.50;;;9.60;99.90;;;;;;5045976;28;20155;-86
2021/12/15 15:05:35;;;;;;;9.40;1.25;;;9.50;99.90;;;;;;5045786;28;20095;-86
2021/12/15 15:08:07;;;;;;;3.10;0.70;;;9.60;99.90;;;;;;5044564;28;20045;-87
2021/12/15 15:10:36;;;;;;;4.82;1.00;;;9.60;99.90;;;;;;5047150;28;20076;-88